Time;durP1;ratioP1;P1;durP2;ratioP2;P2;SDS_P1;SDS_P2;PMS_P1;PMS_P2;Temp;Humidity;BMP_temperature;BMP_pressure;BME280_temperature;BME280_humidity;BME280_pressure;Samples;Min_cycle;Max_cycle;Signal;HPM_P1;HPM_P2
2023/02/27 00:01:47;;;;;;;5.57;3.03;;;;;;;-3.47;79.55;100191.31;5077896;28;20020;-60
2023/02/27 00:04:13;;;;;;;4.50;2.63;;;;;;;-3.51;80.82;100190.75;5091389;28;20664;-60
2023/02/27 00:06:38;;;;;;;6.82;3.10;;;;;;;-3.54;80.09;100182.31;5079309;28;20084;-60
2023/02/27 00:09:04;;;;;;;8.93;3.72;;;;;;;-3.72;80.95;100182.03;5081841;28;20506;-60
2023/02/27 00:11:29;;;;;;;7.60;4.13;;;;;;;-3.98;82.81;100184.19;5084012;28;20056;-60
2023/02/27 00:13:55;;;;;;;7.68;4.07;;;;;;;-4.19;84.63;100187.63;5082539;28;20093;-59
2023/02/27 00:16:20;;;;;;;6.80;4.38;;;;;;;-4.38;85.56;100190.03;5082976;28;20080;-59
2023/02/27 00:18:45;;;;;;;6.35;4.03;;;;;;;-4.42;86.38;100191.22;5074367;28;20093;-58
2023/02/27 00:21:11;;;;;;;8.40;3.55;;;;;;;-4.18;92.28;100189.25;5054672;28;20484;-58
2023/02/27 00:23:36;;;;;;;5.95;3.45;;;;;;;-3.89;88.61;100188.69;5084309;28;20032;-59
2023/02/27 00:26:02;;;;;;;10.20;3.08;;;;;;;-3.93;86.20;100185.47;5094143;28;20055;-58
2023/02/27 00:28:28;;;;;;;7.80;2.78;;;;;;;-3.85;84.84;100184.84;5084762;28;20031;-58
2023/02/27 00:30:53;;;;;;;5.63;3.08;;;;;;;-3.90;83.41;100193.06;5082216;28;20032;-58
2023/02/27 00:33:19;;;;;;;6.10;3.30;;;;;;;-3.77;85.05;100187.69;5085360;28;20035;-58
2023/02/27 00:35:44;;;;;;;5.55;3.03;;;;;;;-3.69;85.67;100185.25;5084732;28;20051;-58
2023/02/27 00:38:10;;;;;;;4.80;3.10;;;;;;;-3.79;82.98;100189.59;5088476;28;20044;-60
2023/02/27 00:40:35;;;;;;;6.80;3.00;;;;;;;-3.83;82.28;100182.94;5091513;28;20381;-60
2023/02/27 00:43:01;;;;;;;6.90;3.13;;;;;;;-3.83;83.14;100188.16;5075400;28;20021;-60
2023/02/27 00:45:27;;;;;;;5.82;2.60;;;;;;;-3.97;82.92;100198.94;5082074;28;20032;-60
2023/02/27 00:47:52;;;;;;;11.93;3.50;;;;;;;-3.92;85.04;100192.41;5083949;28;20031;-60
2023/02/27 00:50:18;;;;;;;6.20;3.10;;;;;;;-3.98;84.86;100195.50;5070006;28;20031;-59
2023/02/27 00:52:43;;;;;;;7.40;3.05;;;;;;;-3.94;86.87;100193.47;5081502;28;20096;-60
2023/02/27 00:55:09;;;;;;;7.30;3.40;;;;;;;-4.02;85.63;100195.88;5079308;28;20178;-59
2023/02/27 00:57:34;;;;;;;6.78;2.95;;;;;;;-4.01;85.92;100187.06;5096722;28;20027;-59
2023/02/27 01:00:00;;;;;;;4.38;2.92;;;;;;;-3.96;86.93;100192.78;5091929;28;20035;-59
2023/02/27 01:02:26;;;;;;;4.50;2.63;;;;;;;-3.79;86.77;100194.00;5069964;28;20051;-58
2023/02/27 01:04:51;;;;;;;6.47;3.13;;;;;;;-3.96;85.22;100198.84;5061710;28;20470;-58
2023/02/27 01:07:16;;;;;;;5.38;3.00;;;;;;;-4.04;87.33;100195.16;5083172;28;20032;-59
2023/02/27 01:09:42;;;;;;;5.95;2.92;;;;;;;-4.27;85.93;100204.88;5085261;28;20031;-58
2023/02/27 01:12:08;;;;;;;6.10;2.85;;;;;;;-4.36;87.21;100202.06;5083664;28;20051;-60
2023/02/27 01:14:34;;;;;;;7.40;3.80;;;;;;;-4.08;91.84;100199.00;5056808;28;20028;-59
2023/02/27 01:16:59;;;;;;;7.75;3.53;;;;;;;-3.88;91.65;100198.19;5080512;28;20097;-58
2023/02/27 01:19:24;;;;;;;5.22;3.40;;;;;;;-3.86;88.95;100198.91;5069566;28;20386;-59
2023/02/27 01:21:50;;;;;;;5.78;3.10;;;;;;;-3.75;90.11;100196.22;5087498;28;20378;-60
2023/02/27 01:24:15;;;;;;;7.53;3.88;;;;;;;-3.74;93.57;100208.38;5084594;28;20044;-59
2023/02/27 01:26:41;;;;;;;7.55;3.58;;;;;;;-3.81;90.09;100199.38;5080007;28;20325;-60
2023/02/27 01:29:06;;;;;;;6.28;3.10;;;;;;;-3.88;90.42;100200.81;5069329;28;20419;-60
2023/02/27 01:31:32;;;;;;;6.05;2.88;;;;;;;-3.90;92.94;100197.50;5087512;28;20540;-60
2023/02/27 01:33:57;;;;;;;7.30;3.30;;;;;;;-3.96;91.49;100201.44;5080486;28;20562;-60
2023/02/27 01:36:23;;;;;;;7.93;3.47;;;;;;;-3.78;92.01;100196.47;5082661;28;20016;-60
2023/02/27 01:38:48;;;;;;;5.60;3.28;;;;;;;-3.64;94.29;100197.13;5059756;28;20277;-58
2023/02/27 01:41:13;;;;;;;8.48;3.25;;;;;;;-3.46;96.56;100200.84;5079989;28;20032;-58
2023/02/27 01:43:58;;;;;;;6.32;3.45;;;;;;;-3.58;94.55;100194.00;5080357;28;20032;-58
2023/02/27 01:46:24;;;;;;;7.00;3.65;;;;;;;-3.56;91.46;100194.72;5079461;28;20076;-58
2023/02/27 01:48:53;;;;;;;4.35;2.60;;;;;;;-3.97;87.24;100183.22;5085729;28;20474;-58
2023/02/27 01:51:19;;;;;;;7.25;3.00;;;;;;;-4.08;86.60;100189.34;5061920;28;20065;-58
2023/02/27 01:53:46;;;;;;;6.65;2.80;;;;;;;-4.20;86.98;100180.69;5069538;28;20027;-59
2023/02/27 01:56:18;;;;;;;5.20;2.80;;;;;;;-4.15;90.97;100175.09;5074129;28;20036;-59
2023/02/27 01:58:43;;;;;;;5.85;2.92;;;;;;;-4.33;87.86;100182.66;5062070;28;20051;-58
2023/02/27 02:01:09;;;;;;;6.80;3.22;;;;;;;-4.38;89.83;100184.81;5076711;28;20028;-59
2023/02/27 02:03:46;;;;;;;6.38;3.10;;;;;;;-4.00;99.05;100183.50;5058294;28;20588;-59
2023/02/27 02:06:12;;;;;;;4.80;3.20;;;;;;;-4.32;90.80;100186.91;5064450;28;20032;-59
2023/02/27 02:08:41;;;;;;;4.78;2.78;;;;;;;-4.61;88.65;100190.09;5085373;28;20419;-58
2023/02/27 02:11:07;;;;;;;6.60;3.03;;;;;;;-4.75;89.06;100185.09;5063160;28;20048;-58
2023/02/27 02:13:33;;;;;;;6.68;3.00;;;;;;;-4.81;90.97;100185.59;5061670;28;20111;-58
2023/02/27 02:16:17;;;;;;;5.82;2.78;;;;;;;-4.41;98.27;100187.69;5079663;28;20368;-58
2023/02/27 02:19:13;;;;;;;6.78;3.15;;;;;;;-4.12;100.00;100183.53;5078710;28;20054;-59
2023/02/27 02:21:41;;;;;;;5.53;2.90;;;;;;;-4.68;91.34;100186.28;5081723;28;20032;-60
2023/02/27 02:24:15;;;;;;;10.27;3.80;;;;;;;-5.00;91.24;100189.63;5084882;28;20024;-59
2023/02/27 02:26:52;;;;;;;7.97;2.42;;;;;;;-4.83;89.89;100187.50;5078002;28;20037;-59
2023/02/27 02:29:41;;;;;;;8.20;2.60;;;;;;;-4.72;88.75;100186.66;5085487;28;20097;-59
2023/02/27 02:32:35;;;;;;;5.35;2.67;;;;;;;-4.50;88.73;100185.78;5088844;28;20029;-59
2023/02/27 02:35:42;;;;;;;10.35;3.40;;;;;;;-4.43;89.83;100193.03;5087772;28;20370;-59
2023/02/27 02:38:27;;;;;;;6.75;3.05;;;;;;;-4.57;88.51;100194.13;5071573;28;20131;-59
2023/02/27 02:41:13;;;;;;;3.33;2.10;;;;;;;-4.50;88.53;100188.41;5070460;28;20091;-60
2023/02/27 02:44:04;;;;;;;4.97;2.60;;;;;;;-4.57;90.46;100194.13;5075008;28;20024;-60
2023/02/27 02:46:58;;;;;;;5.30;2.90;;;;;;;-4.73;92.29;100190.22;5062804;28;20123;-60
2023/02/27 02:49:42;;;;;;;4.40;2.50;;;;;;;-4.72;89.89;100192.69;5063104;28;20047;-59
2023/02/27 02:52:32;;;;;;;3.90;2.58;;;;;;;-4.66;88.69;100189.63;5056658;28;20308;-60
2023/02/27 02:55:07;;;;;;;8.80;2.60;;;;;;;-4.49;89.01;100195.28;5053365;28;20036;-59
2023/02/27 02:57:40;;;;;;;6.35;2.67;;;;;;;-4.54;89.35;100193.06;5068208;28;20028;-60
2023/02/27 03:00:14;;;;;;;5.85;3.28;;;;;;;-4.59;89.42;100193.41;5050690;28;20085;-60
2023/02/27 03:02:45;;;;;;;7.18;3.65;;;;;;;-4.66;90.26;100197.47;5038647;28;20032;-60
2023/02/27 03:05:17;;;;;;;8.25;3.40;;;;;;;-4.67;90.36;100193.16;5083103;28;20166;-59
2023/02/27 03:07:55;;;;;;;6.60;3.08;;;;;;;-4.58;91.42;100194.25;5061178;28;20016;-58
2023/02/27 03:10:32;;;;;;;7.85;3.00;;;;;;;-4.45;92.72;100199.34;5064675;28;20024;-58
2023/02/27 03:13:03;;;;;;;6.35;3.50;;;;;;;-4.52;90.03;100206.00;5077361;28;20128;-60
2023/02/27 03:15:51;;;;;;;7.30;2.92;;;;;;;-4.56;90.23;100205.44;5046692;28;20051;-58
2023/02/27 03:18:23;;;;;;;5.88;3.17;;;;;;;-4.57;90.44;100203.75;5075369;28;20497;-59
2023/02/27 03:21:00;;;;;;;5.18;2.83;;;;;;;-4.65;89.72;100198.28;5065201;28;20098;-59
2023/02/27 03:23:34;;;;;;;7.97;3.08;;;;;;;-4.67;90.02;100198.41;5048344;28;20055;-59
2023/02/27 03:26:00;;;;;;;4.40;2.42;;;;;;;-4.58;93.00;100208.16;5046068;28;20043;-59
2023/02/27 03:28:28;;;;;;;4.60;2.95;;;;;;;-4.65;91.73;100201.75;5055417;28;20494;-60
2023/02/27 03:30:57;;;;;;;4.80;2.50;;;;;;;-4.65;92.36;100201.75;5062951;28;20028;-59
2023/02/27 03:33:56;;;;;;;7.30;3.10;;;;;;;-4.77;90.60;100206.16;5034044;28;20039;-59
2023/02/27 03:36:27;;;;;;;4.80;2.95;;;;;;;-4.58;93.95;100210.78;5067675;28;20043;-63
2023/02/27 03:39:29;;;;;;;4.70;2.92;;;;;;;-4.69;90.73;100200.34;5051518;28;20037;-59
2023/02/27 03:42:26;;;;;;;5.07;2.67;;;;;;;-4.80;91.84;100210.78;5077898;28;20478;-59
2023/02/27 03:44:58;;;;;;;7.68;3.20;;;;;;;-4.81;91.80;100214.38;5061117;28;20758;-59
2023/02/27 03:47:23;;;;;;;7.22;3.25;;;;;;;-4.77;93.44;100223.63;5074625;28;20425;-60
2023/02/27 03:49:50;;;;;;;5.30;3.20;;;;;;;-4.81;91.71;100227.44;5073115;28;20121;-59
2023/02/27 03:52:17;;;;;;;7.93;3.17;;;;;;;-4.86;91.84;100219.94;5084399;28;20039;-59
2023/02/27 03:54:50;;;;;;;5.43;2.90;;;;;;;-4.86;92.11;100214.72;5062942;28;20417;-59
2023/02/27 03:57:15;;;;;;;7.80;3.13;;;;;;;-4.94;92.45;100219.72;5050700;28;20107;-61
2023/02/27 03:59:40;;;;;;;4.88;2.83;;;;;;;-4.86;93.19;100219.13;5054292;28;20085;-59
2023/02/27 04:02:06;;;;;;;5.20;3.10;;;;;;;-4.90;91.90;100228.16;5052484;28;20471;-59
2023/02/27 04:04:31;;;;;;;7.35;2.83;;;;;;;-4.80;91.63;100229.09;5044245;28;20035;-59
2023/02/27 04:07:23;;;;;;;5.57;3.00;;;;;;;-4.90;91.67;100228.97;5079247;28;20043;-59
2023/02/27 04:10:04;;;;;;;7.70;3.10;;;;;;;-4.88;91.39;100226.25;5076571;28;20474;-59
2023/02/27 04:12:37;;;;;;;5.32;2.53;;;;;;;-4.90;92.16;100228.16;5060618;28;20050;-59
2023/02/27 04:15:07;;;;;;;3.45;2.20;;;;;;;-4.74;92.02;100230.41;5060609;28;20050;-59
2023/02/27 04:17:59;;;;;;;7.45;3.10;;;;;;;-4.70;90.97;100235.28;5041977;28;20104;-59
2023/02/27 04:20:42;;;;;;;5.75;2.55;;;;;;;-4.70;92.26;100240.50;5032433;28;20093;-59
2023/02/27 04:23:16;;;;;;;5.25;2.58;;;;;;;-4.79;91.11;100236.84;5075943;28;20397;-59
2023/02/27 04:25:57;;;;;;;7.78;2.70;;;;;;;-4.90;96.12;100233.38;5084397;28;20036;-59
2023/02/27 04:29:01;;;;;;;5.68;3.20;;;;;;;-5.08;95.13;100236.47;5061036;28;20032;-59
2023/02/27 04:31:57;;;;;;;4.65;2.83;;;;;;;-5.13;96.18;100241.22;5074224;28;20496;-59
2023/02/27 04:34:34;;;;;;;4.45;2.60;;;;;;;-4.89;99.83;100242.88;5051799;28;20040;-59
2023/02/27 04:37:07;;;;;;;5.00;2.80;;;;;;;-4.86;94.61;100250.50;5061300;28;20029;-59
2023/02/27 04:39:36;;;;;;;5.18;3.05;;;;;;;-4.97;92.78;100245.25;5074870;28;20029;-59
2023/02/27 04:42:05;;;;;;;4.75;2.42;;;;;;;-4.80;97.04;100245.63;5065024;28;20154;-59
2023/02/27 04:44:32;;;;;;;6.37;3.20;;;;;;;-4.89;94.39;100241.13;5058077;28;20143;-59
2023/02/27 04:46:58;;;;;;;5.40;2.70;;;;;;;-4.85;94.27;100246.94;5048935;28;20292;-59
2023/02/27 04:49:34;;;;;;;6.65;2.88;;;;;;;-4.97;94.12;100245.25;5082882;28;20407;-59
2023/02/27 04:52:05;;;;;;;10.48;3.00;;;;;;;-5.09;94.41;100242.66;5080439;28;20036;-58
2023/02/27 04:54:32;;;;;;;5.82;2.85;;;;;;;-5.37;93.17;100245.66;5043585;28;20131;-58
2023/02/27 04:57:01;;;;;;;5.28;3.40;;;;;;;-5.43;95.63;100239.13;5088525;28;20031;-60
2023/02/27 04:59:29;;;;;;;4.15;2.67;;;;;;;-5.47;94.97;100246.34;5065999;28;20099;-60
2023/02/27 05:01:58;;;;;;;9.75;3.20;;;;;;;-5.27;93.86;100244.03;5029676;28;20406;-59
2023/02/27 05:04:25;;;;;;;4.57;2.85;;;;;;;-5.19;92.76;100246.91;5059421;28;20229;-59
2023/02/27 05:06:50;;;;;;;7.85;3.75;;;;;;;-5.15;92.66;100248.31;5083518;28;20433;-59
2023/02/27 05:09:37;;;;;;;5.38;2.92;;;;;;;-5.22;91.82;100250.59;5079438;28;20039;-58
2023/02/27 05:12:09;;;;;;;10.00;3.25;;;;;;;-5.27;95.40;100257.09;5064528;28;20090;-59
2023/02/27 05:14:38;;;;;;;6.03;3.25;;;;;;;-5.33;94.96;100253.16;5084234;28;20545;-59
2023/02/27 05:17:21;;;;;;;9.35;3.15;;;;;;;-5.27;95.22;100263.16;5084970;28;20028;-59
2023/02/27 05:19:47;;;;;;;5.97;2.80;;;;;;;-5.39;94.91;100265.84;5057456;28;20546;-59
2023/02/27 05:22:12;;;;;;;7.88;2.75;;;;;;;-5.27;93.57;100272.78;5063961;28;20029;-60
2023/02/27 05:25:05;;;;;;;6.40;3.10;;;;;;;-5.16;92.87;100270.19;5081715;28;20020;-59
2023/02/27 05:28:07;;;;;;;7.38;2.80;;;;;;;-5.09;92.23;100279.25;5079766;28;20035;-58
2023/02/27 05:30:58;;;;;;;5.15;2.65;;;;;;;-4.97;92.52;100274.84;5074619;28;20028;-59
2023/02/27 05:33:26;;;;;;;9.98;2.50;;;;;;;-5.04;92.68;100282.34;5085816;28;20057;-59
2023/02/27 05:35:56;;;;;;;5.15;2.95;;;;;;;-5.22;92.27;100275.88;5084418;28;20035;-59
2023/02/27 05:38:33;;;;;;;6.77;2.73;;;;;;;-5.17;92.83;100283.38;5056502;28;20044;-60
2023/02/27 05:41:06;;;;;;;4.53;2.90;;;;;;;-5.03;96.38;100281.38;5081805;28;20047;-58
2023/02/27 05:43:35;;;;;;;4.65;2.72;;;;;;;-5.15;95.06;100281.47;5061191;28;20547;-60
2023/02/27 05:46:04;;;;;;;4.93;2.53;;;;;;;-5.19;92.78;100293.97;5076651;28;20035;-60
2023/02/27 05:48:34;;;;;;;7.20;3.03;;;;;;;-5.14;93.48;100294.44;5046252;28;20031;-59
2023/02/27 05:50:59;;;;;;;4.93;2.50;;;;;;;-5.12;93.64;100286.47;5065213;28;20078;-59
2023/02/27 05:53:28;;;;;;;4.40;2.47;;;;;;;-5.20;92.87;100279.22;5063318;28;20406;-59
2023/02/27 05:55:53;;;;;;;4.32;2.60;;;;;;;-5.18;92.47;100281.72;5065439;28;20537;-59
2023/02/27 05:58:33;;;;;;;5.93;3.05;;;;;;;-5.12;93.56;100282.06;5059496;28;20032;-59
2023/02/27 06:01:03;;;;;;;4.73;2.80;;;;;;;-5.13;94.14;100280.41;5064957;28;20039;-59
2023/02/27 06:03:30;;;;;;;6.60;2.97;;;;;;;-5.17;95.07;100284.19;5054752;28;21332;-59
2023/02/27 06:05:57;;;;;;;8.02;3.30;;;;;;;-5.34;93.41;100282.03;5044705;28;20384;-59
2023/02/27 06:08:22;;;;;;;7.00;3.45;;;;;;;-5.45;93.77;100288.06;5062039;28;20096;-59
2023/02/27 06:10:51;;;;;;;8.48;3.83;;;;;;;-5.19;98.54;100283.50;5078426;28;20033;-58
2023/02/27 06:13:17;;;;;;;13.38;3.50;;;;;;;-5.24;95.98;100286.47;5087599;28;20129;-58
2023/02/27 06:15:43;;;;;;;6.45;3.78;;;;;;;-5.29;94.04;100285.13;5086901;28;20465;-59
2023/02/27 06:18:09;;;;;;;10.80;3.63;;;;;;;-5.35;93.93;100285.59;5060907;28;20490;-59
2023/02/27 06:20:35;;;;;;;6.78;3.53;;;;;;;-5.36;94.98;100290.00;5062378;28;20024;-60
2023/02/27 06:23:00;;;;;;;11.35;3.75;;;;;;;-5.19;97.27;100296.59;5059780;28;20063;-58
2023/02/27 06:25:26;;;;;;;6.65;3.97;;;;;;;-5.23;94.67;100300.38;5079011;28;20409;-58
2023/02/27 06:27:52;;;;;;;8.48;4.10;;;;;;;-5.24;94.18;100298.72;5086582;28;20051;-59
2023/02/27 06:30:18;;;;;;;7.82;3.67;;;;;;;-5.15;94.20;100308.44;5083539;28;20358;-58
2023/02/27 06:32:43;;;;;;;12.13;3.20;;;;;;;-5.20;92.70;100305.34;5072757;28;20041;-59
2023/02/27 06:35:09;;;;;;;8.30;3.13;;;;;;;-5.15;93.08;100313.69;5055092;28;20036;-59
2023/02/27 06:37:34;;;;;;;4.50;2.70;;;;;;;-5.11;92.50;100309.06;5082958;28;20032;-58
2023/02/27 06:40:00;;;;;;;5.60;2.95;;;;;;;-5.09;91.73;100308.00;5056226;28;20119;-59
2023/02/27 06:42:25;;;;;;;11.80;3.00;;;;;;;-5.11;91.94;100312.50;5077246;28;20028;-58
2023/02/27 06:44:51;;;;;;;6.47;2.78;;;;;;;-5.07;91.29;100310.50;5082071;28;20028;-59
2023/02/27 06:47:17;;;;;;;7.32;3.47;;;;;;;-4.99;91.39;100323.84;5065435;28;20443;-59
2023/02/27 06:49:42;;;;;;;8.57;3.63;;;;;;;-4.94;90.85;100313.88;5079881;28;20062;-59
2023/02/27 06:52:07;;;;;;;9.82;5.43;;;;;;;-4.89;90.61;100318.72;5085297;28;20395;-59
2023/02/27 06:54:33;;;;;;;19.60;7.25;;;;;;;-4.80;89.93;100321.47;5091141;28;20027;-58
2023/02/27 06:56:58;;;;;;;25.23;11.40;;;;;;;-4.66;89.33;100328.28;5057006;28;20037;-58
2023/02/27 06:59:24;;;;;;;17.45;8.60;;;;;;;-3.79;86.91;100328.44;5074590;28;20030;-58
2023/02/27 07:01:49;;;;;;;16.60;5.32;;;;;;;-3.06;82.25;100326.81;5081212;28;20032;-58
2023/02/27 07:04:15;;;;;;;13.00;5.50;;;;;;;-1.92;78.60;100325.00;5082228;28;20016;-59
2023/02/27 07:06:41;;;;;;;9.27;4.38;;;;;;;-0.48;73.08;100329.47;5058475;28;20386;-59
2023/02/27 07:09:06;;;;;;;10.88;4.10;;;;;;;-0.96;69.60;100335.69;5079877;28;20054;-59
2023/02/27 07:11:32;;;;;;;6.55;3.47;;;;;;;-1.02;70.31;100328.34;5083653;28;20406;-59
2023/02/27 07:13:57;;;;;;;9.68;3.55;;;;;;;-1.31;69.81;100326.56;5080690;28;20051;-59
2023/02/27 07:16:22;;;;;;;5.57;2.90;;;;;;;-1.40;71.98;100330.03;5058888;28;20088;-59
2023/02/27 07:18:48;;;;;;;9.07;3.50;;;;;;;-0.04;66.49;100342.88;5061289;28;20394;-60
2023/02/27 07:21:16;;;;;;;16.83;5.68;;;;;;;0.41;64.82;100342.06;5084498;28;20391;-59
2023/02/27 07:23:41;;;;;;;12.32;6.03;;;;;;;0.56;63.60;100343.19;5079211;28;20608;-59
2023/02/27 07:26:07;;;;;;;14.95;6.82;;;;;;;0.96;61.72;100341.91;5092721;28;20043;-60
2023/02/27 07:28:32;;;;;;;13.38;7.25;;;;;;;0.28;63.21;100345.06;5086373;28;20346;-59
2023/02/27 07:30:58;;;;;;;21.40;8.35;;;;;;;0.96;62.29;100354.28;5058617;28;20024;-59
2023/02/27 07:33:24;;;;;;;27.83;10.85;;;;;;;1.46;59.04;100349.19;5081107;28;20027;-58
2023/02/27 07:35:49;;;;;;;30.15;15.68;;;;;;;1.06;60.62;100349.72;5071590;28;20033;-59
2023/02/27 07:38:15;;;;;;;18.05;9.68;;;;;;;1.51;60.00;100354.81;5072849;28;20029;-58
2023/02/27 07:40:40;;;;;;;13.40;6.78;;;;;;;1.79;58.56;100352.00;5085119;28;20051;-59
2023/02/27 07:43:06;;;;;;;12.43;6.70;;;;;;;1.84;58.84;100347.06;5085556;28;20521;-58
2023/02/27 07:45:32;;;;;;;21.25;10.75;;;;;;;2.10;57.82;100351.47;5090634;28;20081;-58
2023/02/27 07:47:57;;;;;;;21.45;11.30;;;;;;;2.00;58.04;100348.97;5060522;28;20090;-59
2023/02/27 07:50:22;;;;;;;17.40;10.20;;;;;;;2.37;57.38;100355.66;5059273;28;20042;-59
2023/02/27 07:52:48;;;;;;;11.93;6.38;;;;;;;1.49;61.23;100354.13;5084220;28;20490;-58
2023/02/27 07:55:13;;;;;;;9.10;4.88;;;;;;;1.36;61.40;100352.91;5089157;28;20051;-60
2023/02/27 07:57:39;;;;;;;8.98;4.32;;;;;;;0.96;62.10;100360.38;5085471;28;20034;-60
2023/02/27 08:00:05;;;;;;;10.13;4.00;;;;;;;1.13;63.78;100360.50;5076610;28;20564;-60
2023/02/27 08:02:31;;;;;;;16.52;7.28;;;;;;;1.07;63.06;100362.78;5091833;28;20030;-60
2023/02/27 08:04:57;;;;;;;9.27;4.85;;;;;;;1.33;61.80;100359.34;5085264;28;20114;-60
2023/02/27 08:07:22;;;;;;;5.38;3.53;;;;;;;1.25;61.30;100367.22;5078757;28;20486;-60
2023/02/27 08:09:47;;;;;;;9.73;6.88;;;;;;;1.25;61.80;100364.56;5079033;28;20021;-60
2023/02/27 08:12:13;;;;;;;22.30;14.73;;;;;;;1.60;62.50;100363.63;5087528;28;20060;-60
2023/02/27 08:14:38;;;;;;;6.25;4.18;;;;;;;1.90;61.00;100364.13;5078387;28;20040;-59
2023/02/27 08:17:04;;;;;;;5.35;2.80;;;;;;;1.95;61.06;100367.13;5079565;28;20110;-60
2023/02/27 08:19:29;;;;;;;5.57;2.85;;;;;;;1.41;61.31;100359.38;5078465;28;20043;-59
2023/02/27 08:21:55;;;;;;;6.63;2.53;;;;;;;2.00;60.22;100363.97;5075723;28;20040;-59
2023/02/27 08:24:20;;;;;;;6.35;2.80;;;;;;;2.23;60.72;100370.38;5086447;28;20043;-61
2023/02/27 08:26:46;;;;;;;6.10;3.10;;;;;;;1.91;61.13;100363.13;5086368;28;20036;-60
2023/02/27 08:29:11;;;;;;;6.82;3.20;;;;;;;2.28;60.14;100357.47;5075982;28;20040;-59
2023/02/27 08:31:36;;;;;;;8.75;2.60;;;;;;;2.32;59.15;100364.13;5079631;28;20024;-58
2023/02/27 08:34:02;;;;;;;5.22;2.72;;;;;;;2.05;59.53;100361.72;5073538;28;20024;-60
2023/02/27 08:36:27;;;;;;;6.82;3.13;;;;;;;2.06;60.21;100368.66;5088371;28;20028;-59
2023/02/27 08:38:53;;;;;;;8.32;3.28;;;;;;;2.77;59.40;100367.31;5060313;28;20510;-59
2023/02/27 08:41:18;;;;;;;7.13;3.00;;;;;;;2.38;60.17;100368.75;5074940;28;20043;-59
2023/02/27 08:43:44;;;;;;;6.22;2.78;;;;;;;2.55;59.51;100368.81;5082216;28;20029;-59
2023/02/27 08:46:09;;;;;;;9.38;3.13;;;;;;;2.40;59.91;100375.69;5083523;28;20035;-59
2023/02/27 08:48:35;;;;;;;6.32;3.17;;;;;;;2.52;59.04;100369.09;5095233;28;20036;-59
2023/02/27 08:51:00;;;;;;;6.97;2.60;;;;;;;1.96;58.97;100375.88;5093677;28;20035;-59
2023/02/27 08:53:27;;;;;;;7.25;2.63;;;;;;;1.73;61.00;100379.88;5061298;28;20307;-59
2023/02/27 08:55:52;;;;;;;7.13;2.33;;;;;;;1.48;62.11;100375.44;5088021;28;20784;-59
2023/02/27 08:58:18;;;;;;;5.65;2.72;;;;;;;2.00;60.87;100375.41;5089552;28;20036;-59
2023/02/27 09:00:43;;;;;;;3.40;2.05;;;;;;;1.20;62.39;100372.09;5082906;28;20124;-59
2023/02/27 09:03:10;;;;;;;5.10;2.80;;;;;;;1.74;61.06;100372.78;5089537;28;20040;-59
2023/02/27 09:05:36;;;;;;;6.53;2.92;;;;;;;2.02;59.60;100372.59;5084313;28;20570;-59
2023/02/27 09:08:02;;;;;;;2.72;1.83;;;;;;;1.41;60.81;100380.50;5082259;28;20031;-59
2023/02/27 09:10:28;;;;;;;5.65;2.95;;;;;;;2.68;60.64;100376.28;5087203;28;20028;-59
2023/02/27 09:12:53;;;;;;;9.38;2.47;;;;;;;2.45;59.04;100371.59;5095337;28;20361;-59
2023/02/27 09:15:19;;;;;;;6.85;2.33;;;;;;;2.43;59.36;100378.03;5098187;28;20043;-59
2023/02/27 09:17:44;;;;;;;5.05;2.22;;;;;;;2.72;58.29;100369.63;5066682;28;20032;-59
2023/02/27 09:20:11;;;;;;;6.35;2.50;;;;;;;2.31;57.45;100373.03;5087987;28;20036;-58
2023/02/27 09:22:36;;;;;;;5.78;2.75;;;;;;;2.18;57.67;100388.53;5086141;28;20383;-59
2023/02/27 09:25:02;;;;;;;2.80;1.90;;;;;;;2.08;58.13;100378.06;5081104;28;20028;-61
2023/02/27 09:27:27;;;;;;;6.50;2.15;;;;;;;2.49;57.48;100377.38;5076452;28;20491;-60
2023/02/27 09:29:55;;;;;;;9.02;3.00;;;;;;;1.81;58.75;100373.81;5053300;28;20028;-59
2023/02/27 09:32:23;;;;;;;5.13;3.45;;;;;;;1.82;58.44;100383.41;5079304;28;20028;-59
2023/02/27 09:34:48;;;;;;;3.03;1.98;;;;;;;2.02;58.56;100381.38;5078143;28;20493;-60
2023/02/27 09:37:14;;;;;;;3.97;2.53;;;;;;;2.28;58.03;100375.19;5086400;28;20024;-59
2023/02/27 09:39:40;;;;;;;6.07;2.22;;;;;;;2.42;57.55;100374.56;5086373;28;20046;-59
2023/02/27 09:42:10;;;;;;;4.63;2.05;;;;;;;2.55;56.84;100366.97;5082790;28;20038;-60
2023/02/27 09:44:35;;;;;;;3.77;2.03;;;;;;;2.34;56.89;100391.22;5060241;28;20533;-59
2023/02/27 09:47:05;;;;;;;3.67;2.13;;;;;;;2.21;56.88;100372.34;5087591;28;20032;-59
2023/02/27 09:49:44;;;;;;;3.97;2.13;;;;;;;2.38;56.33;100374.03;5069949;28;20573;-59
2023/02/27 09:52:09;;;;;;;3.28;1.73;;;;;;;2.03;56.10;100384.84;5064836;28;20337;-59
2023/02/27 09:54:34;;;;;;;4.60;1.80;;;;;;;2.04;56.25;100386.47;5049491;28;20020;-59
2023/02/27 09:57:02;;;;;;;2.50;1.50;;;;;;;1.85;56.87;100377.81;5081223;28;20203;-59
2023/02/27 09:59:54;;;;;;;10.30;1.55;;;;;;;2.27;55.44;100392.88;5059569;28;20024;-59
2023/02/27 10:02:58;;;;;;;3.58;2.00;;;;;;;1.98;56.75;100381.84;5086405;28;20028;-60
2023/02/27 10:05:49;;;;;;;7.38;2.92;;;;;;;2.30;55.61;100395.19;5079565;28;20073;-59
2023/02/27 10:09:00;;;;;;;3.40;2.10;;;;;;;2.37;56.01;100392.72;5063849;28;20148;-59
2023/02/27 10:11:51;;;;;;;5.03;1.63;;;;;;;2.43;55.73;100407.13;5045280;28;20040;-60
2023/02/27 10:14:33;;;;;;;3.97;1.73;;;;;;;2.31;55.86;100409.25;5081775;28;20036;-60
2023/02/27 10:16:58;;;;;;;4.35;2.22;;;;;;;2.53;55.63;100407.84;5055417;28;20136;-60
2023/02/27 10:19:29;;;;;;;2.42;1.30;;;;;;;1.83;56.72;100410.69;5062014;28;20035;-60
2023/02/27 10:21:55;;;;;;;4.10;1.50;;;;;;;1.99;56.61;100407.28;5060094;28;20300;-60
2023/02/27 10:24:25;;;;;;;4.90;2.10;;;;;;;2.00;57.12;100401.84;5079998;28;20089;-60
2023/02/27 10:26:51;;;;;;;1.67;1.50;;;;;;;2.35;56.33;100429.94;5082982;28;20443;-60
2023/02/27 10:29:28;;;;;;;4.35;1.48;;;;;;;2.16;56.19;100414.31;5080351;28;20045;-59
2023/02/27 10:32:02;;;;;;;4.10;2.17;;;;;;;2.29;55.71;100417.31;5087048;28;20036;-59
2023/02/27 10:34:28;;;;;;;8.20;2.50;;;;;;;2.81;55.18;100427.72;5060827;28;20131;-59
2023/02/27 10:36:54;;;;;;;2.28;1.70;;;;;;;2.54;55.17;100420.06;5060536;28;20529;-59
2023/02/27 10:39:19;;;;;;;10.65;2.78;;;;;;;2.51;55.23;100415.91;5064438;28;20035;-60
2023/02/27 10:41:45;;;;;;;4.63;1.98;;;;;;;2.33;55.65;100413.38;5063323;28;20059;-60
2023/02/27 10:44:14;;;;;;;4.72;2.13;;;;;;;2.63;55.94;100405.88;5065109;28;20503;-59
2023/02/27 10:46:40;;;;;;;6.43;2.08;;;;;;;2.79;54.51;100397.94;5040413;28;20025;-59
2023/02/27 10:49:18;;;;;;;4.70;2.15;;;;;;;2.44;54.64;100414.91;5080923;28;20032;-59
2023/02/27 10:51:45;;;;;;;5.85;2.15;;;;;;;2.98;54.50;100402.13;5082112;28;20025;-59
2023/02/27 10:54:25;;;;;;;6.82;2.15;;;;;;;2.81;54.71;100424.25;5082110;28;20036;-59
2023/02/27 10:56:55;;;;;;;9.00;3.00;;;;;;;2.92;54.19;100408.09;5078090;28;20770;-60
2023/02/27 10:59:37;;;;;;;6.18;2.55;;;;;;;3.11;54.11;100412.22;5062699;28;20372;-59
2023/02/27 11:02:19;;;;;;;4.13;2.00;;;;;;;2.80;53.99;100383.72;5054812;28;20067;-60
2023/02/27 11:04:52;;;;;;;6.95;2.58;;;;;;;3.30;53.88;100389.88;5066283;28;20028;-60
2023/02/27 11:07:25;;;;;;;3.20;1.85;;;;;;;2.69;54.02;100381.38;5063324;28;20079;-60
2023/02/27 11:10:02;;;;;;;7.30;2.15;;;;;;;3.04;53.47;100382.06;5053089;28;20079;-59
2023/02/27 11:12:29;;;;;;;8.43;2.00;;;;;;;2.59;53.39;100378.06;5078702;28;20048;-60
2023/02/27 11:14:56;;;;;;;3.58;1.88;;;;;;;2.98;53.65;100372.16;5058060;28;20475;-60
2023/02/27 11:17:31;;;;;;;4.00;1.50;;;;;;;2.56;54.15;100370.44;5076909;28;20102;-59
2023/02/27 11:19:57;;;;;;;2.15;1.58;;;;;;;2.61;53.85;100367.31;5072358;28;20029;-59
2023/02/27 11:22:25;;;;;;;4.45;1.92;;;;;;;2.71;54.51;100368.81;5072920;28;20033;-59
2023/02/27 11:24:51;;;;;;;5.40;2.85;;;;;;;3.02;53.60;100384.91;5085983;28;20072;-60
2023/02/27 11:27:27;;;;;;;4.60;2.25;;;;;;;2.91;53.59;100363.22;5044495;28;20025;-60
2023/02/27 11:30:01;;;;;;;2.47;1.55;;;;;;;2.94;53.96;100370.81;5077369;28;20033;-60
2023/02/27 11:32:35;;;;;;;1.88;1.50;;;;;;;2.51;54.41;100348.94;5068638;28;20035;-60
2023/02/27 11:35:00;;;;;;;5.65;1.58;;;;;;;2.67;54.37;100351.63;5059315;28;20491;-59
2023/02/27 11:37:33;;;;;;;2.35;1.60;;;;;;;2.73;54.38;100350.13;5076962;28;20028;-60
2023/02/27 11:40:05;;;;;;;3.47;1.80;;;;;;;2.90;54.17;100332.44;5082821;28;20082;-60
2023/02/27 11:42:32;;;;;;;1.52;1.40;;;;;;;3.06;54.37;100337.72;5058172;28;20050;-59